sensor_id;sensor_type;location;lat;lon;timestamp;temperature;humidity
29201;DHT22;16244;51.956;12.980;2023-02-28T00:00:40;0.80;95.00
29201;DHT22;16244;51.956;12.980;2023-02-28T00:03:11;0.70;95.10
29201;DHT22;16244;51.956;12.980;2023-02-28T00:05:43;0.70;95.10
29201;DHT22;16244;51.956;12.980;2023-02-28T00:08:15;0.70;95.50
29201;DHT22;16244;51.956;12.980;2023-02-28T00:10:44;0.80;95.70
29201;DHT22;16244;51.956;12.980;2023-02-28T00:13:11;0.80;95.60
29201;DHT22;16244;51.956;12.980;2023-02-28T00:15:39;0.70;95.60
29201;DHT22;16244;51.956;12.980;2023-02-28T00:18:06;0.70;95.80
29201;DHT22;16244;51.956;12.980;2023-02-28T00:20:34;0.70;95.10
29201;DHT22;16244;51.956;12.980;2023-02-28T00:23:03;0.70;93.80
29201;DHT22;16244;51.956;12.980;2023-02-28T00:25:30;0.60;93.70
29201;DHT22;16244;51.956;12.980;2023-02-28T00:27:58;0.70;93.50
29201;DHT22;16244;51.956;12.980;2023-02-28T00:30:25;0.60;93.40
29201;DHT22;16244;51.956;12.980;2023-02-28T00:32:52;0.60;93.50
29201;DHT22;16244;51.956;12.980;2023-02-28T00:35:20;0.60;93.60
29201;DHT22;16244;51.956;12.980;2023-02-28T00:37:48;0.60;92.90
29201;DHT22;16244;51.956;12.980;2023-02-28T00:40:17;0.60;92.50
29201;DHT22;16244;51.956;12.980;2023-02-28T00:42:45;0.70;93.00
29201;DHT22;16244;51.956;12.980;2023-02-28T00:45:13;0.80;93.30
29201;DHT22;16244;51.956;12.980;2023-02-28T00:47:40;0.80;92.90
29201;DHT22;16244;51.956;12.980;2023-02-28T00:50:09;0.80;92.30
29201;DHT22;16244;51.956;12.980;2023-02-28T00:52:36;0.80;92.30
29201;DHT22;16244;51.956;12.980;2023-02-28T00:55:05;0.60;92.70
29201;DHT22;16244;51.956;12.980;2023-02-28T00:57:33;0.50;93.10
29201;DHT22;16244;51.956;12.980;2023-02-28T01:00:01;0.40;92.60
29201;DHT22;16244;51.956;12.980;2023-02-28T01:02:30;0.30;93.30
29201;DHT22;16244;51.956;12.980;2023-02-28T01:04:57;0.30;93.60
29201;DHT22;16244;51.956;12.980;2023-02-28T01:07:25;0.40;94.40
29201;DHT22;16244;51.956;12.980;2023-02-28T01:09:52;0.50;94.50
29201;DHT22;16244;51.956;12.980;2023-02-28T01:12:20;0.60;94.60
29201;DHT22;16244;51.956;12.980;2023-02-28T01:14:49;0.60;94.60
29201;DHT22;16244;51.956;12.980;2023-02-28T01:17:16;0.60;95.00
29201;DHT22;16244;51.956;12.980;2023-02-28T01:19:43;0.50;95.00
29201;DHT22;16244;51.956;12.980;2023-02-28T01:22:11;0.50;94.70
29201;DHT22;16244;51.956;12.980;2023-02-28T01:24:38;0.50;95.00
29201;DHT22;16244;51.956;12.980;2023-02-28T01:27:06;0.50;95.10
29201;DHT22;16244;51.956;12.980;2023-02-28T01:29:33;0.30;94.80
29201;DHT22;16244;51.956;12.980;2023-02-28T01:32:02;0.20;95.00
29201;DHT22;16244;51.956;12.980;2023-02-28T01:34:30;0.30;95.00
29201;DHT22;16244;51.956;12.980;2023-02-28T01:36:57;0.30;94.90
29201;DHT22;16244;51.956;12.980;2023-02-28T01:39:25;0.20;94.70
29201;DHT22;16244;51.956;12.980;2023-02-28T01:41:53;0.20;95.00
29201;DHT22;16244;51.956;12.980;2023-02-28T01:44:57;0.30;95.40
29201;DHT22;16244;51.956;12.980;2023-02-28T01:47:30;0.20;95.80
29201;DHT22;16244;51.956;12.980;2023-02-28T01:49:59;0.30;96.00
29201;DHT22;16244;51.956;12.980;2023-02-28T01:52:28;0.30;96.00
29201;DHT22;16244;51.956;12.980;2023-02-28T01:55:02;0.30;96.20
29201;DHT22;16244;51.956;12.980;2023-02-28T01:57:34;0.30;96.20
29201;DHT22;16244;51.956;12.980;2023-02-28T02:00:09;0.30;96.40
29201;DHT22;16244;51.956;12.980;2023-02-28T02:02:42;0.30;96.50
29201;DHT22;16244;51.956;12.980;2023-02-28T02:05:12;0.30;96.40
29201;DHT22;16244;51.956;12.980;2023-02-28T02:07:43;0.30;96.40
29201;DHT22;16244;51.956;12.980;2023-02-28T02:10:14;0.30;96.50
29201;DHT22;16244;51.956;12.980;2023-02-28T02:13:00;0.30;96.30
29201;DHT22;16244;51.956;12.980;2023-02-28T02:15:34;0.20;96.50
29201;DHT22;16244;51.956;12.980;2023-02-28T02:18:12;0.10;96.50
29201;DHT22;16244;51.956;12.980;2023-02-28T02:20:59;0.00;96.80
29201;DHT22;16244;51.956;12.980;2023-02-28T02:23:53;0.00;96.80
29201;DHT22;16244;51.956;12.980;2023-02-28T02:26:51;-0.20;96.70
29201;DHT22;16244;51.956;12.980;2023-02-28T02:29:41;-0.10;96.30
29201;DHT22;16244;51.956;12.980;2023-02-28T02:32:28;-0.10;96.10
29201;DHT22;16244;51.956;12.980;2023-02-28T02:35:12;-0.30;96.20
29201;DHT22;16244;51.956;12.980;2023-02-28T02:37:44;-0.30;96.30
29201;DHT22;16244;51.956;12.980;2023-02-28T02:40:17;-0.40;96.20
29201;DHT22;16244;51.956;12.980;2023-02-28T02:42:50;-0.40;96.10
29201;DHT22;16244;51.956;12.980;2023-02-28T02:45:23;-0.50;95.90
29201;DHT22;16244;51.956;12.980;2023-02-28T02:47:52;-0.50;96.30
29201;DHT22;16244;51.956;12.980;2023-02-28T02:50:24;-0.60;96.20
29201;DHT22;16244;51.956;12.980;2023-02-28T02:52:56;-0.60;96.30
29201;DHT22;16244;51.956;12.980;2023-02-28T02:55:25;-0.60;96.10
29201;DHT22;16244;51.956;12.980;2023-02-28T02:57:56;-0.60;96.00
29201;DHT22;16244;51.956;12.980;2023-02-28T03:00:31;-0.50;95.80
29201;DHT22;16244;51.956;12.980;2023-02-28T03:03:01;-0.60;95.90
29201;DHT22;16244;51.956;12.980;2023-02-28T03:05:34;-0.50;95.50
29201;DHT22;16244;51.956;12.980;2023-02-28T03:08:04;-0.60;95.30
29201;DHT22;16244;51.956;12.980;2023-02-28T03:10:36;-0.60;95.10
29201;DHT22;16244;51.956;12.980;2023-02-28T03:13:16;-0.70;95.40
29201;DHT22;16244;51.956;12.980;2023-02-28T03:15:59;-0.70;95.60
29201;DHT22;16244;51.956;12.980;2023-02-28T03:18:37;-0.70;95.50
29201;DHT22;16244;51.956;12.980;2023-02-28T03:21:13;-0.80;95.50
29201;DHT22;16244;51.956;12.980;2023-02-28T03:23:51;-0.90;95.60
29201;DHT22;16244;51.956;12.980;2023-02-28T03:26:23;-0.80;95.80
29201;DHT22;16244;51.956;12.980;2023-02-28T03:29:00;-0.80;95.70
29201;DHT22;16244;51.956;12.980;2023-02-28T03:31:32;-0.90;95.70
29201;DHT22;16244;51.956;12.980;2023-02-28T03:34:04;-0.90;95.60
29201;DHT22;16244;51.956;12.980;2023-02-28T03:36:37;-0.90;95.40
29201;DHT22;16244;51.956;12.980;2023-02-28T03:39:12;-1.00;95.20
29201;DHT22;16244;51.956;12.980;2023-02-28T03:41:44;-1.00;94.90
29201;DHT22;16244;51.956;12.980;2023-02-28T03:44:18;-1.00;94.70
29201;DHT22;16244;51.956;12.980;2023-02-28T03:46:54;-1.10;94.60
29201;DHT22;16244;51.956;12.980;2023-02-28T03:49:28;-1.20;94.70
29201;DHT22;16244;51.956;12.980;2023-02-28T03:52:02;-1.30;94.80
29201;DHT22;16244;51.956;12.980;2023-02-28T03:54:33;-1.30;95.10
29201;DHT22;16244;51.956;12.980;2023-02-28T03:57:05;-1.30;95.10
29201;DHT22;16244;51.956;12.980;2023-02-28T03:59:36;-1.40;95.10
29201;DHT22;16244;51.956;12.980;2023-02-28T04:02:05;-1.40;94.90
29201;DHT22;16244;51.956;12.980;2023-02-28T04:04:33;-1.50;94.90
29201;DHT22;16244;51.956;12.980;2023-02-28T04:07:04;-1.40;94.80
29201;DHT22;16244;51.956;12.980;2023-02-28T04:09:32;-1.40;94.80
29201;DHT22;16244;51.956;12.980;2023-02-28T04:11:59;-1.50;94.70
29201;DHT22;16244;51.956;12.980;2023-02-28T04:14:26;-1.70;94.70
29201;DHT22;16244;51.956;12.980;2023-02-28T04:16:54;-1.70;94.90
29201;DHT22;16244;51.956;12.980;2023-02-28T04:19:21;-1.70;95.00
29201;DHT22;16244;51.956;12.980;2023-02-28T04:21:51;-1.70;95.00
29201;DHT22;16244;51.956;12.980;2023-02-28T04:24:21;-1.70;95.00
29201;DHT22;16244;51.956;12.980;2023-02-28T04:26:51;-1.70;94.80
29201;DHT22;16244;51.956;12.980;2023-02-28T04:29:20;-1.80;94.80
29201;DHT22;16244;51.956;12.980;2023-02-28T04:31:48;-1.70;94.70
29201;DHT22;16244;51.956;12.980;2023-02-28T04:34:16;-1.80;94.60
29201;DHT22;16244;51.956;12.980;2023-02-28T04:36:45;-1.80;94.80
29201;DHT22;16244;51.956;12.980;2023-02-28T04:39:15;-1.80;94.50
29201;DHT22;16244;51.956;12.980;2023-02-28T04:41:45;-1.80;94.60
29201;DHT22;16244;51.956;12.980;2023-02-28T04:44:14;-1.90;94.80
29201;DHT22;16244;51.956;12.980;2023-02-28T04:46:41;-1.90;94.80
29201;DHT22;16244;51.956;12.980;2023-02-28T04:49:11;-1.90;94.90
29201;DHT22;16244;51.956;12.980;2023-02-28T04:51:39;-2.00;95.00
29201;DHT22;16244;51.956;12.980;2023-02-28T04:54:07;-2.00;95.40
29201;DHT22;16244;51.956;12.980;2023-02-28T04:56:34;-2.10;95.40
29201;DHT22;16244;51.956;12.980;2023-02-28T04:59:03;-2.20;95.70
29201;DHT22;16244;51.956;12.980;2023-02-28T05:01:32;-2.10;95.60
29201;DHT22;16244;51.956;12.980;2023-02-28T05:04:01;-2.20;95.60
29201;DHT22;16244;51.956;12.980;2023-02-28T05:06:33;-2.10;95.50
29201;DHT22;16244;51.956;12.980;2023-02-28T05:09:01;-2.20;95.60
29201;DHT22;16244;51.956;12.980;2023-02-28T05:11:30;-2.30;95.30
29201;DHT22;16244;51.956;12.980;2023-02-28T05:14:03;-2.30;95.50
29201;DHT22;16244;51.956;12.980;2023-02-28T05:16:31;-2.30;95.40
29201;DHT22;16244;51.956;12.980;2023-02-28T05:18:58;-2.30;95.40
29201;DHT22;16244;51.956;12.980;2023-02-28T05:21:29;-2.30;95.40
29201;DHT22;16244;51.956;12.980;2023-02-28T05:24:00;-2.30;95.40
29201;DHT22;16244;51.956;12.980;2023-02-28T05:26:28;-2.30;95.30
29201;DHT22;16244;51.956;12.980;2023-02-28T05:28:56;-2.40;95.00
29201;DHT22;16244;51.956;12.980;2023-02-28T05:31:25;-2.40;95.20
29201;DHT22;16244;51.956;12.980;2023-02-28T05:33:52;-2.40;95.10
29201;DHT22;16244;51.956;12.980;2023-02-28T05:36:20;-2.40;95.10
29201;DHT22;16244;51.956;12.980;2023-02-28T05:38:48;-2.40;95.00
29201;DHT22;16244;51.956;12.980;2023-02-28T05:41:17;-2.30;95.80
29201;DHT22;16244;51.956;12.980;2023-02-28T05:43:45;-2.30;96.00
29201;DHT22;16244;51.956;12.980;2023-02-28T05:46:13;-2.30;96.20
29201;DHT22;16244;51.956;12.980;2023-02-28T05:48:45;-2.30;96.00
29201;DHT22;16244;51.956;12.980;2023-02-28T05:51:13;-2.20;96.00
29201;DHT22;16244;51.956;12.980;2023-02-28T05:53:40;-2.20;95.20
29201;DHT22;16244;51.956;12.980;2023-02-28T05:56:08;-2.20;95.10
29201;DHT22;16244;51.956;12.980;2023-02-28T05:58:35;-2.20;95.20
29201;DHT22;16244;51.956;12.980;2023-02-28T06:01:21;-2.20;95.30
29201;DHT22;16244;51.956;12.980;2023-02-28T06:03:51;-2.30;95.50
29201;DHT22;16244;51.956;12.980;2023-02-28T06:06:18;-2.30;95.70
29201;DHT22;16244;51.956;12.980;2023-02-28T06:08:46;-2.40;95.90
29201;DHT22;16244;51.956;12.980;2023-02-28T06:11:13;-2.40;95.90
29201;DHT22;16244;51.956;12.980;2023-02-28T06:13:41;-2.40;95.80
29201;DHT22;16244;51.956;12.980;2023-02-28T06:16:10;-2.40;95.80
29201;DHT22;16244;51.956;12.980;2023-02-28T06:18:38;-2.40;95.90
29201;DHT22;16244;51.956;12.980;2023-02-28T06:21:07;-2.40;95.90
29201;DHT22;16244;51.956;12.980;2023-02-28T06:23:35;-2.40;95.90
29201;DHT22;16244;51.956;12.980;2023-02-28T06:26:02;-2.40;95.80
29201;DHT22;16244;51.956;12.980;2023-02-28T06:28:30;-2.50;95.50
29201;DHT22;16244;51.956;12.980;2023-02-28T06:30:58;-2.70;96.10
29201;DHT22;16244;51.956;12.980;2023-02-28T06:33:25;-2.50;96.20
29201;DHT22;16244;51.956;12.980;2023-02-28T06:35:53;-2.40;96.00
29201;DHT22;16244;51.956;12.980;2023-02-28T06:38:22;-2.50;96.10
29201;DHT22;16244;51.956;12.980;2023-02-28T06:40:53;-2.40;96.20
29201;DHT22;16244;51.956;12.980;2023-02-28T06:43:21;-2.40;96.10
29201;DHT22;16244;51.956;12.980;2023-02-28T06:45:48;-2.40;96.40
29201;DHT22;16244;51.956;12.980;2023-02-28T06:48:16;-2.30;96.40
29201;DHT22;16244;51.956;12.980;2023-02-28T06:50:45;-2.20;96.30
29201;DHT22;16244;51.956;12.980;2023-02-28T06:53:13;-2.10;96.20
29201;DHT22;16244;51.956;12.980;2023-02-28T06:55:42;-1.80;96.20
29201;DHT22;16244;51.956;12.980;2023-02-28T06:58:09;-1.70;95.80
29201;DHT22;16244;51.956;12.980;2023-02-28T07:00:41;-1.60;95.60
29201;DHT22;16244;51.956;12.980;2023-02-28T07:03:10;-1.40;95.60
29201;DHT22;16244;51.956;12.980;2023-02-28T07:05:38;-1.20;95.70
29201;DHT22;16244;51.956;12.980;2023-02-28T07:08:06;-0.80;95.30
29201;DHT22;16244;51.956;12.980;2023-02-28T07:10:36;-0.40;94.30
29201;DHT22;16244;51.956;12.980;2023-02-28T07:13:05;0.20;92.90
29201;DHT22;16244;51.956;12.980;2023-02-28T07:15:34;0.80;91.80
29201;DHT22;16244;51.956;12.980;2023-02-28T07:18:02;1.40;90.20
29201;DHT22;16244;51.956;12.980;2023-02-28T07:20:30;1.90;89.20
29201;DHT22;16244;51.956;12.980;2023-02-28T07:22:57;2.40;86.80
29201;DHT22;16244;51.956;12.980;2023-02-28T07:25:27;2.80;83.20
29201;DHT22;16244;51.956;12.980;2023-02-28T07:27:55;3.00;80.50
29201;DHT22;16244;51.956;12.980;2023-02-28T07:30:24;3.10;79.60
29201;DHT22;16244;51.956;12.980;2023-02-28T07:32:51;3.00;77.70
29201;DHT22;16244;51.956;12.980;2023-02-28T07:35:20;3.30;77.70
29201;DHT22;16244;51.956;12.980;2023-02-28T07:37:48;3.70;76.40
29201;DHT22;16244;51.956;12.980;2023-02-28T07:40:15;3.90;73.60
29201;DHT22;16244;51.956;12.980;2023-02-28T07:42:44;3.80;74.90
29201;DHT22;16244;51.956;12.980;2023-02-28T07:45:11;4.10;76.00
29201;DHT22;16244;51.956;12.980;2023-02-28T07:47:42;4.30;73.40
29201;DHT22;16244;51.956;12.980;2023-02-28T07:50:12;4.80;71.60
29201;DHT22;16244;51.956;12.980;2023-02-28T07:52:40;4.30;69.90
29201;DHT22;16244;51.956;12.980;2023-02-28T07:55:09;4.80;70.40
29201;DHT22;16244;51.956;12.980;2023-02-28T07:57:37;5.40;68.60
29201;DHT22;16244;51.956;12.980;2023-02-28T08:00:07;5.40;67.80
29201;DHT22;16244;51.956;12.980;2023-02-28T08:02:35;5.80;68.50
29201;DHT22;16244;51.956;12.980;2023-02-28T08:05:06;6.20;67.80
29201;DHT22;16244;51.956;12.980;2023-02-28T08:07:33;6.10;65.40
29201;DHT22;16244;51.956;12.980;2023-02-28T08:10:01;6.10;66.10
29201;DHT22;16244;51.956;12.980;2023-02-28T08:12:28;5.60;66.00
29201;DHT22;16244;51.956;12.980;2023-02-28T08:14:56;5.70;65.60
29201;DHT22;16244;51.956;12.980;2023-02-28T08:17:23;6.20;65.30
29201;DHT22;16244;51.956;12.980;2023-02-28T08:19:51;6.00;62.80
29201;DHT22;16244;51.956;12.980;2023-02-28T08:22:20;5.80;64.40
29201;DHT22;16244;51.956;12.980;2023-02-28T08:24:47;5.60;67.00
29201;DHT22;16244;51.956;12.980;2023-02-28T08:27:15;6.20;66.20
29201;DHT22;16244;51.956;12.980;2023-02-28T08:29:43;6.10;64.90
29201;DHT22;16244;51.956;12.980;2023-02-28T08:32:11;5.70;66.20
29201;DHT22;16244;51.956;12.980;2023-02-28T08:34:39;6.20;66.70
29201;DHT22;16244;51.956;12.980;2023-02-28T08:37:06;5.80;66.30
29201;DHT22;16244;51.956;12.980;2023-02-28T08:39:35;6.00;66.40
29201;DHT22;16244;51.956;12.980;2023-02-28T08:42:04;6.10;66.30
29201;DHT22;16244;51.956;12.980;2023-02-28T08:44:31;7.10;63.50
29201;DHT22;16244;51.956;12.980;2023-02-28T08:47:00;7.80;61.60
29201;DHT22;16244;51.956;12.980;2023-02-28T08:49:30;8.20;61.00
29201;DHT22;16244;51.956;12.980;2023-02-28T08:51:57;8.70;58.50
29201;DHT22;16244;51.956;12.980;2023-02-28T08:54:25;8.80;59.60
29201;DHT22;16244;51.956;12.980;2023-02-28T08:56:58;9.40;56.50
29201;DHT22;16244;51.956;12.980;2023-02-28T08:59:26;9.90;55.40
29201;DHT22;16244;51.956;12.980;2023-02-28T09:01:53;9.80;53.70
29201;DHT22;16244;51.956;12.980;2023-02-28T09:04:21;9.50;52.80
29201;DHT22;16244;51.956;12.980;2023-02-28T09:06:48;10.00;53.80
29201;DHT22;16244;51.956;12.980;2023-02-28T09:09:16;9.70;51.70
29201;DHT22;16244;51.956;12.980;2023-02-28T09:11:43;10.10;50.30
29201;DHT22;16244;51.956;12.980;2023-02-28T09:14:12;10.30;48.80
29201;DHT22;16244;51.956;12.980;2023-02-28T09:16:40;10.70;48.50
29201;DHT22;16244;51.956;12.980;2023-02-28T09:19:10;11.30;46.80
29201;DHT22;16244;51.956;12.980;2023-02-28T09:21:38;11.00;43.80
29201;DHT22;16244;51.956;12.980;2023-02-28T09:24:06;10.70;45.70
29201;DHT22;16244;51.956;12.980;2023-02-28T09:26:33;10.30;46.00
29201;DHT22;16244;51.956;12.980;2023-02-28T09:29:01;10.20;46.90
29201;DHT22;16244;51.956;12.980;2023-02-28T09:31:31;10.80;47.00
29201;DHT22;16244;51.956;12.980;2023-02-28T09:33:59;10.90;44.60
29201;DHT22;16244;51.956;12.980;2023-02-28T09:36:27;11.40;43.60
29201;DHT22;16244;51.956;12.980;2023-02-28T09:38:56;11.70;43.80
29201;DHT22;16244;51.956;12.980;2023-02-28T09:41:25;11.40;41.50
29201;DHT22;16244;51.956;12.980;2023-02-28T09:43:56;10.90;39.10
29201;DHT22;16244;51.956;12.980;2023-02-28T09:46:32;10.60;44.00
29201;DHT22;16244;51.956;12.980;2023-02-28T09:49:03;10.10;42.30
29201;DHT22;16244;51.956;12.980;2023-02-28T09:51:43;10.20;41.70
29201;DHT22;16244;51.956;12.980;2023-02-28T09:54:15;10.60;42.60
29201;DHT22;16244;51.956;12.980;2023-02-28T09:56:49;10.00;43.50
29201;DHT22;16244;51.956;12.980;2023-02-28T09:59:29;10.50;45.40
29201;DHT22;16244;51.956;12.980;2023-02-28T10:02:08;10.80;40.90
29201;DHT22;16244;51.956;12.980;2023-02-28T10:04:46;10.20;41.00
29201;DHT22;16244;51.956;12.980;2023-02-28T10:07:23;10.50;42.10
29201;DHT22;16244;51.956;12.980;2023-02-28T10:09:59;10.70;43.40
29201;DHT22;16244;51.956;12.980;2023-02-28T10:12:32;9.90;41.00
29201;DHT22;16244;51.956;12.980;2023-02-28T10:15:00;10.70;42.80
29201;DHT22;16244;51.956;12.980;2023-02-28T10:17:37;10.20;37.70
29201;DHT22;16244;51.956;12.980;2023-02-28T10:20:10;9.20;43.50
29201;DHT22;16244;51.956;12.980;2023-02-28T10:22:48;9.80;43.90
29201;DHT22;16244;51.956;12.980;2023-02-28T10:25:26;9.70;45.20
29201;DHT22;16244;51.956;12.980;2023-02-28T10:27:55;10.00;43.20
29201;DHT22;16244;51.956;12.980;2023-02-28T10:30:26;10.30;39.60
29201;DHT22;16244;51.956;12.980;2023-02-28T10:32:55;9.60;39.60
29201;DHT22;16244;51.956;12.980;2023-02-28T10:35:24;10.10;42.50
29201;DHT22;16244;51.956;12.980;2023-02-28T10:37:54;10.00;42.30
29201;DHT22;16244;51.956;12.980;2023-02-28T10:40:30;8.50;42.40
29201;DHT22;16244;51.956;12.980;2023-02-28T10:42:59;7.70;48.60
29201;DHT22;16244;51.956;12.980;2023-02-28T10:45:29;7.60;49.50
29201;DHT22;16244;51.956;12.980;2023-02-28T10:48:02;7.00;51.10
29201;DHT22;16244;51.956;12.980;2023-02-28T10:50:35;6.30;51.20
29201;DHT22;16244;51.956;12.980;2023-02-28T10:53:30;6.10;54.20
29201;DHT22;16244;51.956;12.980;2023-02-28T10:56:00;5.80;54.50
29201;DHT22;16244;51.956;12.980;2023-02-28T10:58:30;5.50;55.50
29201;DHT22;16244;51.956;12.980;2023-02-28T11:00:59;5.40;53.60
29201;DHT22;16244;51.956;12.980;2023-02-28T11:03:34;5.40;54.10
29201;DHT22;16244;51.956;12.980;2023-02-28T11:06:08;5.20;57.50
29201;DHT22;16244;51.956;12.980;2023-02-28T11:08:45;5.20;58.40
29201;DHT22;16244;51.956;12.980;2023-02-28T11:11:13;5.10;59.10
29201;DHT22;16244;51.956;12.980;2023-02-28T11:13:44;5.00;58.00
29201;DHT22;16244;51.956;12.980;2023-02-28T11:16:13;4.80;55.30
29201;DHT22;16244;51.956;12.980;2023-02-28T11:18:46;4.60;58.40
29201;DHT22;16244;51.956;12.980;2023-02-28T11:21:21;4.70;60.00
29201;DHT22;16244;51.956;12.980;2023-02-28T11:23:52;4.60;54.90
29201;DHT22;16244;51.956;12.980;2023-02-28T11:26:40;4.60;61.80
29201;DHT22;16244;51.956;12.980;2023-02-28T11:29:12;4.80;63.30
29201;DHT22;16244;51.956;12.980;2023-02-28T11:31:42;4.70;58.50
29201;DHT22;16244;51.956;12.980;2023-02-28T11:34:24;4.40;56.00
29201;DHT22;16244;51.956;12.980;2023-02-28T11:36:56;4.30;59.60
29201;DHT22;16244;51.956;12.980;2023-02-28T11:39:27;4.40;60.90
29201;DHT22;16244;51.956;12.980;2023-02-28T11:42:09;4.40;63.10
29201;DHT22;16244;51.956;12.980;2023-02-28T11:44:52;4.40;58.30
29201;DHT22;16244;51.956;12.980;2023-02-28T11:47:33;4.10;56.20
29201;DHT22;16244;51.956;12.980;2023-02-28T11:50:27;4.10;58.20
29201;DHT22;16244;51.956;12.980;2023-02-28T11:53:14;4.10;56.60
29201;DHT22;16244;51.956;12.980;2023-02-28T11:55:49;3.90;58.50
29201;DHT22;16244;51.956;12.980;2023-02-28T11:58:33;4.00;59.30
29201;DHT22;16244;51.956;12.980;2023-02-28T12:01:15;4.10;60.70
29201;DHT22;16244;51.956;12.980;2023-02-28T12:04:03;4.10;60.80
29201;DHT22;16244;51.956;12.980;2023-02-28T12:06:44;4.10;59.00
29201;DHT22;16244;51.956;12.980;2023-02-28T12:12:23;4.30;60.20
29201;DHT22;16244;51.956;12.980;2023-02-28T12:15:19;4.30;62.40
29201;DHT22;16244;51.956;12.980;2023-02-28T12:18:12;4.40;64.00
29201;DHT22;16244;51.956;12.980;2023-02-28T12:20:49;4.50;62.20
29201;DHT22;16244;51.956;12.980;2023-02-28T12:26:35;4.50;60.00
29201;DHT22;16244;51.956;12.980;2023-02-28T12:29:14;4.30;59.80
29201;DHT22;16244;51.956;12.980;2023-02-28T12:31:49;4.20;59.20
29201;DHT22;16244;51.956;12.980;2023-02-28T12:34:22;4.20;61.20
29201;DHT22;16244;51.956;12.980;2023-02-28T12:36:56;4.20;59.60
29201;DHT22;16244;51.956;12.980;2023-02-28T12:39:30;4.30;62.10
29201;DHT22;16244;51.956;12.980;2023-02-28T12:42:04;4.30;59.50
29201;DHT22;16244;51.956;12.980;2023-02-28T12:44:42;4.30;61.70
29201;DHT22;16244;51.956;12.980;2023-02-28T12:47:17;4.30;60.50
29201;DHT22;16244;51.956;12.980;2023-02-28T12:49:58;4.10;57.60
29201;DHT22;16244;51.956;12.980;2023-02-28T12:52:34;4.10;60.00
29201;DHT22;16244;51.956;12.980;2023-02-28T12:55:11;4.20;60.10
29201;DHT22;16244;51.956;12.980;2023-02-28T12:57:44;4.10;60.00
29201;DHT22;16244;51.956;12.980;2023-02-28T13:00:18;4.10;59.70
29201;DHT22;16244;51.956;12.980;2023-02-28T13:06:30;4.00;59.70
29201;DHT22;16244;51.956;12.980;2023-02-28T13:09:08;4.10;60.90
29201;DHT22;16244;51.956;12.980;2023-02-28T13:11:45;4.30;63.80
29201;DHT22;16244;51.956;12.980;2023-02-28T13:14:30;4.20;59.90
29201;DHT22;16244;51.956;12.980;2023-02-28T13:17:19;4.30;63.40
29201;DHT22;16244;51.956;12.980;2023-02-28T13:19:58;4.40;62.70
29201;DHT22;16244;51.956;12.980;2023-02-28T13:29:40;4.30;62.10
29201;DHT22;16244;51.956;12.980;2023-02-28T13:32:42;4.30;62.00
29201;DHT22;16244;51.956;12.980;2023-02-28T13:35:38;4.20;59.20
29201;DHT22;16244;51.956;12.980;2023-02-28T13:38:37;4.20;61.00
29201;DHT22;16244;51.956;12.980;2023-02-28T13:41:46;4.10;60.30
29201;DHT22;16244;51.956;12.980;2023-02-28T13:44:20;4.30;61.00
29201;DHT22;16244;51.956;12.980;2023-02-28T13:47:32;4.40;60.50
29201;DHT22;16244;51.956;12.980;2023-02-28T13:50:27;4.40;59.80
29201;DHT22;16244;51.956;12.980;2023-02-28T13:53:34;4.30;59.20
29201;DHT22;16244;51.956;12.980;2023-02-28T13:56:18;4.40;63.30
29201;DHT22;16244;51.956;12.980;2023-02-28T13:58:54;4.40;64.50
29201;DHT22;16244;51.956;12.980;2023-02-28T14:01:41;4.40;61.00
29201;DHT22;16244;51.956;12.980;2023-02-28T14:04:43;4.30;60.70
29201;DHT22;16244;51.956;12.980;2023-02-28T14:07:18;4.40;62.00
29201;DHT22;16244;51.956;12.980;2023-02-28T14:09:54;4.50;62.30
29201;DHT22;16244;51.956;12.980;2023-02-28T14:12:54;4.40;61.20
29201;DHT22;16244;51.956;12.980;2023-02-28T14:15:44;4.40;59.80
29201;DHT22;16244;51.956;12.980;2023-02-28T14:18:25;4.20;61.40
29201;DHT22;16244;51.956;12.980;2023-02-28T14:21:20;4.30;61.10
29201;DHT22;16244;51.956;12.980;2023-02-28T14:27:28;4.20;58.20
29201;DHT22;16244;51.956;12.980;2023-02-28T14:30:26;4.20;60.00
29201;DHT22;16244;51.956;12.980;2023-02-28T14:33:05;4.20;61.20
29201;DHT22;16244;51.956;12.980;2023-02-28T14:35:54;4.20;60.30
29201;DHT22;16244;51.956;12.980;2023-02-28T14:38:30;4.20;64.30
29201;DHT22;16244;51.956;12.980;2023-02-28T14:41:03;4.20;60.50
29201;DHT22;16244;51.956;12.980;2023-02-28T14:43:32;4.10;57.70
29201;DHT22;16244;51.956;12.980;2023-02-28T14:46:02;4.10;59.40
29201;DHT22;16244;51.956;12.980;2023-02-28T14:48:31;4.10;61.30
29201;DHT22;16244;51.956;12.980;2023-02-28T14:51:01;4.10;60.60
29201;DHT22;16244;51.956;12.980;2023-02-28T14:53:35;4.20;63.70
29201;DHT22;16244;51.956;12.980;2023-02-28T14:56:04;4.20;61.30
29201;DHT22;16244;51.956;12.980;2023-02-28T14:58:34;4.20;63.30
29201;DHT22;16244;51.956;12.980;2023-02-28T15:01:04;4.20;64.20
29201;DHT22;16244;51.956;12.980;2023-02-28T15:03:36;4.10;65.30
29201;DHT22;16244;51.956;12.980;2023-02-28T15:06:06;4.10;63.30
29201;DHT22;16244;51.956;12.980;2023-02-28T15:08:35;4.00;67.40
29201;DHT22;16244;51.956;12.980;2023-02-28T15:11:05;4.00;65.20
29201;DHT22;16244;51.956;12.980;2023-02-28T15:13:36;4.00;63.90
29201;DHT22;16244;51.956;12.980;2023-02-28T15:16:08;4.00;67.00
29201;DHT22;16244;51.956;12.980;2023-02-28T15:18:44;4.00;63.90
29201;DHT22;16244;51.956;12.980;2023-02-28T15:21:15;4.10;64.50
29201;DHT22;16244;51.956;12.980;2023-02-28T15:23:46;4.00;66.10
29201;DHT22;16244;51.956;12.980;2023-02-28T15:26:16;4.00;62.00
29201;DHT22;16244;51.956;12.980;2023-02-28T15:28:47;4.00;63.60
29201;DHT22;16244;51.956;12.980;2023-02-28T15:31:21;3.90;65.50
29201;DHT22;16244;51.956;12.980;2023-02-28T15:33:54;3.80;64.90
29201;DHT22;16244;51.956;12.980;2023-02-28T15:36:25;3.60;69.80
29201;DHT22;16244;51.956;12.980;2023-02-28T15:38:55;3.40;71.80
29201;DHT22;16244;51.956;12.980;2023-02-28T15:41:25;3.30;72.40
29201;DHT22;16244;51.956;12.980;2023-02-28T15:44:16;3.20;72.60
29201;DHT22;16244;51.956;12.980;2023-02-28T15:46:54;3.30;67.20
29201;DHT22;16244;51.956;12.980;2023-02-28T15:49:22;3.30;71.10
29201;DHT22;16244;51.956;12.980;2023-02-28T15:51:51;3.10;73.90
29201;DHT22;16244;51.956;12.980;2023-02-28T15:54:23;3.00;76.50
29201;DHT22;16244;51.956;12.980;2023-02-28T15:56:55;2.90;75.10
29201;DHT22;16244;51.956;12.980;2023-02-28T15:59:26;2.80;74.60
29201;DHT22;16244;51.956;12.980;2023-02-28T16:02:14;2.90;73.20
29201;DHT22;16244;51.956;12.980;2023-02-28T16:04:55;2.80;74.90
29201;DHT22;16244;51.956;12.980;2023-02-28T16:07:23;2.70;77.60
29201;DHT22;16244;51.956;12.980;2023-02-28T16:09:52;2.60;78.70
29201;DHT22;16244;51.956;12.980;2023-02-28T16:12:21;2.60;75.80
29201;DHT22;16244;51.956;12.980;2023-02-28T16:14:52;2.50;76.00
29201;DHT22;16244;51.956;12.980;2023-02-28T16:17:22;2.50;77.10
29201;DHT22;16244;51.956;12.980;2023-02-28T16:19:50;2.40;78.30